Time;durP1;ratioP1;P1;durP2;ratioP2;P2;SDS_P1;SDS_P2;PMS_P1;PMS_P2;Temp;Humidity;BMP_temperature;BMP_pressure;BME280_temperature;BME280_humidity;BME280_pressure;Samples;Min_cycle;Max_cycle;Signal;HPM_P1;HPM_P2
2022/10/29 00:01:32;;;;;;;9.93;6.40;;;15.90;1.50;;;;;;5059073;28;20173;-76
2022/10/29 00:03:57;;;;;;;16.77;7.20;;;15.80;2.30;;;;;;5063574;28;20224;-76
2022/10/29 00:06:23;;;;;;;18.93;7.63;;;15.80;3.40;;;;;;5064445;28;20172;-77
2022/10/29 00:08:48;;;;;;;15.40;6.30;;;15.70;5.10;;;;;;5067826;28;20188;-76
2022/10/29 00:11:19;;;;;;;12.20;6.40;;;15.80;6.00;;;;;;5054907;28;20189;-74
2022/10/29 00:13:46;;;;;;;17.67;7.23;;;15.60;6.10;;;;;;5063003;28;20316;-76
2022/10/29 00:16:15;;;;;;;20.00;6.30;;;15.50;7.70;;;;;;5062543;28;20961;-76
2022/10/29 00:18:41;;;;;;;15.50;6.40;;;15.40;8.40;;;;;;5065582;28;20883;-76
2022/10/29 00:21:10;;;;;;;13.00;5.93;;;15.40;8.60;;;;;;5066314;28;20427;-75
2022/10/29 00:23:36;;;;;;;14.03;6.20;;;15.40;7.30;;;;;;5066980;28;20682;-77
2022/10/29 00:26:03;;;;;;;14.30;5.60;;;15.40;7.30;;;;;;5056558;28;20433;-74
2022/10/29 00:28:29;;;;;;;17.80;7.10;;;15.40;5.70;;;;;;5063210;28;20698;-77
2022/10/29 00:30:54;;;;;;;13.83;6.17;;;15.50;4.40;;;;;;5062945;28;21631;-77
2022/10/29 00:33:20;;;;;;;16.93;6.10;;;15.40;2.50;;;;;;5060722;28;20497;-76
2022/10/29 00:35:57;;;;;;;17.20;6.70;;;15.40;4.30;;;;;;5065429;28;20243;-76
2022/10/29 00:38:23;;;;;;;16.63;6.47;;;15.30;4.70;;;;;;5060376;28;20262;-76
2022/10/29 00:40:49;;;;;;;12.33;6.83;;;15.30;4.70;;;;;;5062226;28;20431;-76
2022/10/29 00:43:16;;;;;;;9.77;5.77;;;15.30;4.50;;;;;;5058573;28;20207;-76
2022/10/29 00:45:48;;;;;;;12.83;6.17;;;15.20;5.00;;;;;;5064873;28;20181;-77
2022/10/29 00:48:13;;;;;;;17.10;5.90;;;15.10;7.30;;;;;;5061388;28;20457;-76
2022/10/29 00:50:39;;;;;;;15.53;5.90;;;15.00;9.60;;;;;;5055031;28;20451;-75
2022/10/29 00:53:04;;;;;;;13.33;6.70;;;15.00;8.70;;;;;;5068899;28;20200;-76
2022/10/29 00:55:30;;;;;;;14.03;6.00;;;15.10;7.80;;;;;;5062475;28;20169;-77
2022/10/29 00:57:56;;;;;;;13.37;5.93;;;15.10;7.30;;;;;;5060143;28;20243;-78
2022/10/29 01:00:22;;;;;;;16.73;6.13;;;15.20;5.90;;;;;;5065737;28;20215;-76
2022/10/29 01:02:48;;;;;;;10.93;5.87;;;15.20;4.90;;;;;;5058760;28;20486;-76
2022/10/29 01:05:19;;;;;;;11.33;6.13;;;15.20;3.20;;;;;;5070749;28;20539;-77
2022/10/29 01:07:45;;;;;;;11.63;5.67;;;15.20;3.00;;;;;;5068337;28;21102;-78
2022/10/29 01:10:12;;;;;;;14.10;6.10;;;15.10;5.60;;;;;;5065769;28;20481;-77
2022/10/29 01:12:46;;;;;;;13.33;6.40;;;15.10;4.90;;;;;;5068937;28;20464;-77
2022/10/29 01:15:23;;;;;;;9.10;6.00;;;15.00;7.40;;;;;;5054537;28;20725;-76
2022/10/29 01:18:20;;;;;;;10.87;6.47;;;15.00;7.90;;;;;;5060482;28;20515;-75
2022/10/29 01:21:20;;;;;;;8.97;6.03;;;15.00;9.00;;;;;;5062856;28;20436;-76
2022/10/29 01:24:03;;;;;;;10.93;6.23;;;15.00;10.80;;;;;;5063188;28;20769;-77
2022/10/29 01:26:47;;;;;;;10.63;6.20;;;15.00;9.90;;;;;;5064762;28;20428;-76
2022/10/29 01:29:32;;;;;;;20.70;6.73;;;15.10;5.80;;;;;;5062579;28;20488;-76
2022/10/29 01:32:07;;;;;;;10.87;5.83;;;15.10;7.80;;;;;;5060280;28;20450;-78
2022/10/29 01:35:02;;;;;;;18.83;7.10;;;15.20;6.90;;;;;;5063541;28;20977;-76
2022/10/29 01:37:46;;;;;;;17.37;6.23;;;15.30;3.80;;;;;;5063657;28;20430;-74
2022/10/29 01:40:31;;;;;;;16.50;6.10;;;15.30;3.20;;;;;;5056137;28;20427;-76
2022/10/29 01:43:08;;;;;;;10.87;5.83;;;15.40;3.00;;;;;;5062191;28;20496;-78
2022/10/29 01:45:44;;;;;;;12.80;5.80;;;15.40;1.70;;;;;;5056624;28;20514;-76
2022/10/29 01:48:18;;;;;;;13.03;5.90;;;15.40;1.00;;;;;;5065020;28;20426;-76
2022/10/29 01:50:51;;;;;;;13.60;6.17;;;15.40;1.40;;;;;;5062002;28;20453;-75
2022/10/29 01:53:17;;;;;;;10.37;5.93;;;15.30;2.30;;;;;;5064359;28;20471;-76
2022/10/29 01:55:43;;;;;;;13.30;6.03;;;15.30;1.20;;;;;;5070135;28;20445;-77
2022/10/29 01:58:11;;;;;;;12.07;6.50;;;15.20;3.70;;;;;;5069754;28;20427;-76
2022/10/29 02:01:12;;;;;;;16.40;7.17;;;15.20;5.80;;;;;;5062709;28;20180;-76
2022/10/29 02:04:17;;;;;;;10.53;5.50;;;15.10;5.40;;;;;;5061478;28;20956;-77
2022/10/29 02:07:09;;;;;;;10.93;6.07;;;15.00;8.10;;;;;;5063286;28;20443;-76
2022/10/29 02:09:38;;;;;;;13.30;6.07;;;15.00;7.20;;;;;;5064767;28;20439;-77
2022/10/29 02:12:33;;;;;;;13.27;5.80;;;14.90;10.20;;;;;;5064879;28;20449;-76
2022/10/29 02:15:31;;;;;;;11.37;6.10;;;15.20;11.90;;;;;;5061603;28;20492;-77
2022/10/29 02:18:01;;;;;;;9.20;5.70;;;14.80;11.00;;;;;;5057751;28;20465;-77
2022/10/29 02:20:26;;;;;;;15.87;5.67;;;14.80;11.70;;;;;;5063259;28;20496;-76
2022/10/29 02:22:52;;;;;;;10.53;5.80;;;14.80;11.70;;;;;;5061444;28;20451;-75
2022/10/29 02:25:17;;;;;;;17.33;6.57;;;14.80;11.10;;;;;;5064568;28;20263;-75
2022/10/29 02:27:43;;;;;;;15.33;6.10;;;14.70;12.30;;;;;;5069126;28;20431;-78
2022/10/29 02:30:09;;;;;;;14.83;6.93;;;14.70;13.90;;;;;;5070342;28;20582;-75
2022/10/29 02:32:34;;;;;;;9.77;5.77;;;14.60;15.80;;;;;;5070001;28;20206;-76
2022/10/29 02:35:00;;;;;;;12.40;6.90;;;14.60;14.50;;;;;;5060443;28;20605;-76
2022/10/29 02:37:26;;;;;;;13.73;6.13;;;14.60;17.80;;;;;;5069587;28;20168;-77
2022/10/29 02:39:51;;;;;;;12.60;6.97;;;14.50;20.10;;;;;;5064028;28;20173;-78
2022/10/29 02:42:17;;;;;;;11.00;6.47;;;14.50;18.80;;;;;;5062570;28;20512;-76
2022/10/29 02:44:42;;;;;;;8.73;5.73;;;14.50;19.50;;;;;;5069400;28;20176;-77
2022/10/29 02:47:08;;;;;;;11.50;6.57;;;14.50;18.10;;;;;;5057027;28;20673;-76
2022/10/29 02:49:33;;;;;;;14.13;6.20;;;14.60;17.60;;;;;;5057906;28;20256;-76
2022/10/29 02:51:59;;;;;;;16.07;7.03;;;14.60;17.90;;;;;;5060206;28;20257;-76
2022/10/29 02:54:24;;;;;;;12.80;6.17;;;14.60;19.30;;;;;;5063872;28;20237;-76
2022/10/29 02:56:50;;;;;;;11.00;5.90;;;14.90;19.70;;;;;;5065316;28;20181;-76
2022/10/29 02:59:15;;;;;;;10.27;6.10;;;14.60;20.30;;;;;;5065152;28;20164;-76
2022/10/29 03:01:41;;;;;;;18.87;6.93;;;14.60;18.70;;;;;;5067002;28;20209;-77
2022/10/29 03:04:06;;;;;;;11.47;6.37;;;14.70;19.80;;;;;;5062381;28;20523;-76
2022/10/29 03:06:32;;;;;;;12.50;5.97;;;14.70;16.30;;;;;;5065290;28;20329;-76
2022/10/29 03:08:57;;;;;;;12.90;5.80;;;14.70;17.20;;;;;;5069924;28;20222;-76
2022/10/29 03:11:23;;;;;;;21.57;5.73;;;14.70;15.90;;;;;;5073980;28;20178;-75
2022/10/29 03:13:48;;;;;;;14.63;6.40;;;14.70;19.20;;;;;;5070239;28;20245;-76
2022/10/29 03:16:14;;;;;;;9.90;6.20;;;14.70;18.20;;;;;;5064593;28;20255;-77
2022/10/29 03:18:39;;;;;;;13.77;6.20;;;16.00;18.00;;;;;;5058476;28;20185;-76
2022/10/29 03:21:05;;;;;;;17.33;6.10;;;14.70;17.30;;;;;;5062472;28;20196;-76
2022/10/29 03:23:30;;;;;;;11.60;6.00;;;14.70;15.50;;;;;;5070699;28;20200;-76
2022/10/29 03:25:56;;;;;;;13.37;6.20;;;14.80;14.70;;;;;;5067016;28;20187;-77
2022/10/29 03:28:23;;;;;;;9.60;6.07;;;14.80;12.10;;;;;;5065134;28;20181;-79
2022/10/29 03:30:49;;;;;;;11.37;6.30;;;14.80;13.40;;;;;;5064669;28;20185;-77
2022/10/29 03:33:14;;;;;;;11.20;6.17;;;14.80;13.40;;;;;;5065375;28;20992;-76
2022/10/29 03:35:40;;;;;;;11.13;6.10;;;14.70;13.80;;;;;;5062674;28;20216;-76
2022/10/29 03:38:06;;;;;;;10.53;6.00;;;14.70;13.50;;;;;;5066194;28;20210;-76
2022/10/29 03:40:31;;;;;;;10.93;6.17;;;14.60;13.60;;;;;;5072432;28;20255;-76
2022/10/29 03:42:57;;;;;;;14.50;6.73;;;14.60;13.80;;;;;;5071059;28;20967;-78
2022/10/29 03:45:22;;;;;;;15.83;6.10;;;14.60;14.90;;;;;;5071359;28;20675;-75
2022/10/29 03:47:48;;;;;;;10.40;5.73;;;14.60;16.10;;;;;;5057882;28;20250;-76
2022/10/29 03:50:13;;;;;;;14.70;5.70;;;14.80;16.30;;;;;;5070378;28;20555;-78
2022/10/29 03:52:39;;;;;;;9.87;5.67;;;14.50;15.10;;;;;;5068332;28;20212;-76
2022/10/29 03:55:05;;;;;;;11.70;6.10;;;14.50;16.10;;;;;;5062496;28;20531;-76
2022/10/29 03:57:31;;;;;;;18.50;6.10;;;14.40;19.80;;;;;;5067160;28;20173;-76
2022/10/29 03:59:57;;;;;;;11.50;5.60;;;14.40;21.00;;;;;;5065847;28;20457;-76
2022/10/29 04:02:23;;;;;;;19.07;5.90;;;14.50;18.90;;;;;;5066786;28;20269;-78
2022/10/29 04:04:49;;;;;;;8.77;5.43;;;14.50;14.90;;;;;;5063252;28;20266;-76
2022/10/29 04:07:14;;;;;;;8.07;5.40;;;14.60;15.30;;;;;;5067032;28;20996;-75
2022/10/29 04:09:40;;;;;;;9.70;5.63;;;14.70;12.90;;;;;;5065716;28;20202;-76
2022/10/29 04:12:06;;;;;;;10.27;5.20;;;14.70;12.30;;;;;;5076098;28;20662;-76
2022/10/29 04:14:32;;;;;;;13.17;5.73;;;14.60;11.70;;;;;;5062453;28;20544;-76
2022/10/29 04:16:57;;;;;;;13.23;6.07;;;14.70;12.90;;;;;;5063362;28;20435;-76
2022/10/29 04:19:23;;;;;;;11.63;6.30;;;14.60;13.80;;;;;;5062946;28;20188;-77
2022/10/29 04:21:49;;;;;;;11.17;5.50;;;14.60;12.60;;;;;;5066173;28;20687;-76
2022/10/29 04:24:14;;;;;;;15.97;7.07;;;14.60;13.80;;;;;;5063669;28;20275;-76
2022/10/29 04:26:43;;;;;;;14.13;6.43;;;14.60;15.00;;;;;;5059951;28;20291;-76
2022/10/29 04:29:09;;;;;;;13.43;5.93;;;14.60;12.90;;;;;;5057137;28;20181;-76
2022/10/29 04:31:35;;;;;;;10.73;6.63;;;14.60;13.80;;;;;;5062035;28;20554;-79
2022/10/29 04:34:01;;;;;;;18.03;6.20;;;14.60;14.50;;;;;;5067986;28;20671;-76
2022/10/29 04:36:26;;;;;;;10.67;5.77;;;14.60;14.90;;;;;;5057682;28;20450;-76
2022/10/29 04:38:52;;;;;;;14.33;5.60;;;14.70;13.90;;;;;;5061194;28;20180;-77
2022/10/29 04:41:17;;;;;;;17.60;6.37;;;14.70;16.30;;;;;;5058952;28;20249;-76
2022/10/29 04:43:43;;;;;;;16.53;6.53;;;14.70;16.10;;;;;;5068592;28;20212;-76
2022/10/29 04:46:09;;;;;;;13.20;5.87;;;14.80;13.90;;;;;;5065287;28;20200;-76
2022/10/29 04:48:35;;;;;;;11.80;5.57;;;14.80;14.00;;;;;;5059796;28;20477;-79
2022/10/29 04:51:00;;;;;;;13.30;5.80;;;14.80;13.90;;;;;;5064009;28;20442;-76
2022/10/29 04:53:26;;;;;;;9.50;5.30;;;14.80;13.90;;;;;;5062125;28;20645;-77
2022/10/29 04:56:02;;;;;;;7.83;5.20;;;14.90;12.70;;;;;;5064805;28;20183;-78
2022/10/29 04:58:28;;;;;;;13.40;6.10;;;14.90;11.80;;;;;;5063968;28;20171;-75
2022/10/29 05:00:59;;;;;;;11.60;5.67;;;14.90;11.90;;;;;;5066417;28;20454;-76
2022/10/29 05:03:24;;;;;;;21.40;6.20;;;14.80;14.70;;;;;;5068489;28;20216;-76
2022/10/29 05:05:50;;;;;;;9.70;5.47;;;14.90;14.10;;;;;;5063508;28;20449;-76
2022/10/29 05:08:16;;;;;;;12.47;5.60;;;14.90;12.60;;;;;;5067880;28;20577;-75
2022/10/29 05:10:42;;;;;;;13.90;5.83;;;14.90;12.30;;;;;;5055126;28;20176;-76
2022/10/29 05:13:10;;;;;;;6.00;4.57;;;14.90;12.80;;;;;;5078834;28;20456;-76
2022/10/29 05:15:37;;;;;;;11.93;5.50;;;14.90;13.20;;;;;;5059674;28;20567;-75
2022/10/29 05:18:03;;;;;;;13.03;5.33;;;15.00;12.30;;;;;;5049637;28;20496;-77
2022/10/29 05:20:29;;;;;;;9.97;5.70;;;15.00;11.30;;;;;;5062068;28;20941;-76
2022/10/29 05:23:06;;;;;;;11.50;6.27;;;15.10;11.30;;;;;;5065432;28;20462;-77
2022/10/29 05:25:33;;;;;;;16.67;7.17;;;15.10;11.20;;;;;;5063037;28;20430;-76
2022/10/29 05:28:04;;;;;;;13.50;5.20;;;15.10;15.40;;;;;;5063116;28;20928;-76
2022/10/29 05:30:30;;;;;;;13.20;5.83;;;15.10;21.10;;;;;;5063228;28;20458;-78
2022/10/29 05:32:55;;;;;;;11.93;5.57;;;15.20;20.50;;;;;;5064697;28;20519;-77
2022/10/29 05:35:21;;;;;;;11.60;7.00;;;15.30;19.60;;;;;;5061549;28;20415;-77
2022/10/29 05:37:54;;;;;;;11.17;6.30;;;15.40;19.40;;;;;;5061346;28;20546;-76
2022/10/29 05:40:22;;;;;;;17.93;7.20;;;15.50;18.00;;;;;;5057913;28;20205;-77
2022/10/29 05:42:48;;;;;;;15.70;6.87;;;15.50;17.50;;;;;;5064364;28;20450;-76
2022/10/29 05:45:14;;;;;;;13.80;6.63;;;15.60;15.50;;;;;;5059287;28;20427;-76
2022/10/29 05:47:39;;;;;;;11.90;6.40;;;15.60;14.50;;;;;;5060388;28;20463;-76
2022/10/29 05:50:05;;;;;;;14.77;6.20;;;15.60;14.70;;;;;;5061933;28;20473;-76
2022/10/29 05:52:31;;;;;;;14.37;6.00;;;15.70;14.50;;;;;;5060687;28;20219;-78
2022/10/29 05:54:57;;;;;;;18.17;6.53;;;15.70;13.90;;;;;;5058093;28;20222;-77
2022/10/29 05:57:22;;;;;;;17.20;6.40;;;15.90;12.80;;;;;;5068242;28;20204;-77
2022/10/29 05:59:48;;;;;;;20.03;6.00;;;15.80;11.40;;;;;;5063979;28;20185;-76
2022/10/29 06:02:13;;;;;;;14.83;7.00;;;15.90;9.40;;;;;;5065742;28;20224;-76
2022/10/29 06:04:39;;;;;;;15.43;6.40;;;16.00;7.50;;;;;;5064951;28;20208;-77
2022/10/29 06:07:04;;;;;;;14.10;6.50;;;16.10;5.00;;;;;;5065927;28;20191;-76
2022/10/29 06:09:30;;;;;;;22.10;7.53;;;16.10;2.30;;;;;;5064933;28;20378;-76
2022/10/29 06:11:56;;;;;;;17.80;7.63;;;16.20;1.00;;;;;;5058511;28;20242;-76
2022/10/29 06:14:22;;;;;;;20.00;9.60;;;16.30;1.00;;;;;;5066953;28;20207;-77
2022/10/29 06:16:47;;;;;;;20.03;9.70;;;16.30;1.00;;;;;;5060904;28;20181;-77
2022/10/29 06:19:13;;;;;;;22.10;9.60;;;16.40;1.00;;;;;;5056553;28;20173;-76
2022/10/29 06:21:39;;;;;;;22.43;7.73;;;16.40;1.00;;;;;;5064875;28;20308;-75
2022/10/29 06:24:04;;;;;;;21.90;7.90;;;16.50;1.00;;;;;;5064889;28;20193;-76
2022/10/29 06:26:30;;;;;;;16.17;7.70;;;16.50;1.00;;;;;;5063296;28;20293;-76
2022/10/29 06:28:56;;;;;;;18.70;7.10;;;16.50;1.00;;;;;;5053935;28;20430;-75
2022/10/29 06:31:21;;;;;;;14.73;6.80;;;16.50;1.00;;;;;;5065126;28;20529;-79
2022/10/29 06:33:47;;;;;;;12.20;6.67;;;16.50;1.00;;;;;;5062420;28;20703;-76
2022/10/29 06:36:12;;;;;;;13.47;6.60;;;16.60;1.00;;;;;;5059536;28;20181;-77
2022/10/29 06:38:38;;;;;;;13.10;6.80;;;16.60;1.00;;;;;;5068858;28;20191;-76
2022/10/29 06:41:03;;;;;;;20.60;6.70;;;16.60;1.00;;;;;;5060857;28;20189;-77
2022/10/29 06:43:29;;;;;;;21.17;6.90;;;16.60;1.00;;;;;;5059956;28;20201;-76
2022/10/29 06:45:54;;;;;;;14.60;7.27;;;16.60;1.00;;;;;;5067792;28;20257;-76
2022/10/29 06:48:20;;;;;;;13.13;7.30;;;16.70;1.00;;;;;;5059524;28;20643;-76
2022/10/29 06:50:45;;;;;;;17.07;7.17;;;16.80;1.00;;;;;;5060668;28;20197;-76
2022/10/29 06:53:13;;;;;;;16.63;6.90;;;16.80;1.00;;;;;;5065654;28;20424;-76
2022/10/29 06:55:39;;;;;;;14.40;7.43;;;16.80;1.00;;;;;;5064658;28;20179;-76
2022/10/29 06:58:15;;;;;;;14.47;6.67;;;16.90;1.00;;;;;;5063117;28;20955;-78
2022/10/29 07:00:41;;;;;;;14.52;7.35;;;16.90;1.00;;;;;;5063676;28;20430;-78
2022/10/29 07:03:11;;;;;;;23.17;7.10;;;17.10;1.00;;;;;;5065257;28;20224;-77
2022/10/29 07:05:36;;;;;;;17.37;7.00;;;17.20;1.00;;;;;;5070523;28;20459;-76
2022/10/29 07:08:02;;;;;;;17.47;7.10;;;17.30;1.00;;;;;;5068589;28;20493;-78
2022/10/29 07:10:30;;;;;;;12.90;6.50;;;17.40;1.00;;;;;;5064628;28;20288;-78
2022/10/29 07:12:56;;;;;;;12.13;6.57;;;17.50;1.00;;;;;;5073276;28;20226;-77
2022/10/29 07:15:21;;;;;;;15.23;7.17;;;17.60;1.00;;;;;;5059529;28;20809;-78
2022/10/29 07:17:59;;;;;;;16.07;6.70;;;17.80;1.00;;;;;;5056912;28;20439;-77
2022/10/29 07:20:26;;;;;;;19.53;7.10;;;18.00;1.00;;;;;;5068237;28;20179;-78
2022/10/29 07:22:52;;;;;;;16.37;6.90;;;18.10;1.00;;;;;;5068418;28;20549;-76
2022/10/29 07:25:18;;;;;;;18.17;7.20;;;18.20;1.00;;;;;;5062580;28;20522;-77
2022/10/29 07:27:43;;;;;;;17.13;7.63;;;18.20;1.00;;;;;;5059247;28;20220;-78
2022/10/29 07:30:09;;;;;;;19.50;7.53;;;18.30;1.00;;;;;;5063939;28;20184;-78
2022/10/29 07:32:34;;;;;;;16.93;7.80;;;18.40;1.00;;;;;;5056096;28;20208;-78
2022/10/29 07:35:00;;;;;;;18.80;7.40;;;18.50;1.00;;;;;;5063779;28;20169;-77
2022/10/29 07:37:26;;;;;;;18.77;7.30;;;18.70;1.00;;;;;;5060586;28;20176;-78
2022/10/29 07:39:51;;;;;;;13.30;7.00;;;18.70;1.00;;;;;;5060989;28;20311;-78
2022/10/29 07:42:17;;;;;;;15.10;7.63;;;18.70;1.00;;;;;;5070084;28;20192;-78
2022/10/29 07:44:43;;;;;;;20.70;8.20;;;19.00;1.00;;;;;;5069568;28;20164;-77
2022/10/29 07:47:09;;;;;;;13.83;8.30;;;18.80;1.00;;;;;;5064590;28;20431;-78
2022/10/29 07:49:34;;;;;;;18.50;7.90;;;18.90;1.00;;;;;;5066190;28;20169;-77
2022/10/29 07:52:00;;;;;;;13.57;7.23;;;19.00;1.00;;;;;;5059235;28;20200;-78
2022/10/29 07:54:25;;;;;;;19.07;7.70;;;19.20;1.00;;;;;;5070418;28;20570;-77
2022/10/29 07:56:52;;;;;;;15.03;6.90;;;19.20;1.00;;;;;;5069785;28;20210;-78
2022/10/29 07:59:18;;;;;;;17.10;7.50;;;19.20;1.00;;;;;;5068022;28;20610;-78
2022/10/29 08:01:44;;;;;;;15.70;7.27;;;19.30;1.00;;;;;;5068271;28;20551;-77
2022/10/29 08:04:10;;;;;;;11.50;7.27;;;19.30;1.00;;;;;;5066538;28;20181;-77
2022/10/29 08:06:35;;;;;;;15.60;6.90;;;19.40;1.00;;;;;;5060366;28;21009;-76
2022/10/29 08:09:01;;;;;;;17.47;6.93;;;19.50;1.00;;;;;;5071952;28;20179;-77
2022/10/29 08:11:27;;;;;;;13.93;6.90;;;19.60;1.00;;;;;;5070098;28;20528;-77
2022/10/29 08:13:52;;;;;;;16.13;7.00;;;19.70;1.00;;;;;;5078440;28;20218;-77
2022/10/29 08:16:18;;;;;;;23.20;7.03;;;19.80;1.00;;;;;;5066864;28;20217;-77
2022/10/29 08:18:43;;;;;;;16.80;6.60;;;20.00;1.00;;;;;;5055379;28;20181;-77
2022/10/29 08:21:09;;;;;;;14.23;7.20;;;20.10;1.00;;;;;;5066878;28;20191;-77
2022/10/29 08:23:34;;;;;;;14.43;6.47;;;20.50;1.00;;;;;;5064362;28;20228;-78
2022/10/29 08:26:01;;;;;;;11.73;6.40;;;20.70;1.00;;;;;;5059044;28;20187;-76
2022/10/29 08:28:27;;;;;;;14.10;6.37;;;20.90;1.00;;;;;;5065172;28;20173;-77
2022/10/29 08:30:52;;;;;;;18.13;6.80;;;20.80;1.00;;;;;;5065500;28;20450;-75
2022/10/29 08:33:19;;;;;;;12.73;7.10;;;20.90;1.00;;;;;;5068529;28;20207;-77
2022/10/29 08:35:45;;;;;;;19.83;6.60;;;21.10;1.00;;;;;;5061065;28;20176;-77
2022/10/29 08:38:10;;;;;;;19.73;6.77;;;21.40;1.00;;;;;;5061189;28;20441;-76
2022/10/29 08:41:17;;;;;;;15.37;6.20;;;21.80;1.00;;;;;;5067979;28;20172;-78
2022/10/29 08:44:09;;;;;;;15.50;6.80;;;22.20;1.00;;;;;;5063287;28;20187;-77
2022/10/29 08:46:51;;;;;;;21.30;6.83;;;22.60;1.00;;;;;;5055523;28;20427;-77
2022/10/29 08:49:37;;;;;;;19.80;6.43;;;23.20;1.00;;;;;;5064376;28;20492;-77
2022/10/29 08:52:09;;;;;;;11.67;5.77;;;24.30;1.00;;;;;;5048528;28;20446;-77
2022/10/29 08:54:40;;;;;;;19.80;5.90;;;25.50;1.00;;;;;;5059680;28;20536;-77
2022/10/29 08:57:17;;;;;;;21.93;6.73;;;26.20;1.00;;;;;;5060656;28;20418;-77
2022/10/29 08:59:52;;;;;;;23.23;6.40;;;25.70;1.00;;;;;;5055563;28;20511;-78
2022/10/29 09:02:17;;;;;;;19.27;6.03;;;24.90;1.00;;;;;;5066142;28;20437;-77
2022/10/29 09:04:43;;;;;;;19.47;6.30;;;24.10;1.00;;;;;;5070694;28;20843;-78
2022/10/29 09:07:21;;;;;;;11.80;5.43;;;23.80;1.00;;;;;;5063367;28;20164;-77
2022/10/29 09:10:25;;;;;;;18.57;6.27;;;23.70;1.00;;;;;;5064158;28;20180;-77
2022/10/29 09:13:31;;;;;;;12.88;6.00;;;23.70;1.00;;;;;;5061947;28;20439;-77
2022/10/29 09:16:06;;;;;;;14.80;6.00;;;24.10;1.00;;;;;;5076130;28;20210;-78
2022/10/29 09:18:43;;;;;;;13.43;5.10;;;25.10;1.00;;;;;;5078880;28;20468;-80
2022/10/29 09:21:27;;;;;;;15.40;5.90;;;26.00;1.00;;;;;;5079152;28;20410;-80
2022/10/29 09:24:16;;;;;;;26.63;5.90;;;26.90;1.00;;;;;;5074030;28;20405;-78
2022/10/29 09:27:10;;;;;;;16.33;5.30;;;27.90;1.00;;;;;;5074231;28;20425;-77
2022/10/29 09:30:01;;;;;;;11.93;5.47;;;29.10;1.00;;;;;;5076662;28;20426;-77
2022/10/29 09:32:36;;;;;;;18.60;5.47;;;30.30;1.00;;;;;;5049944;28;20330;-77
2022/10/29 09:35:13;;;;;;;11.00;5.57;;;31.30;1.00;;;;;;5054202;28;20159;-77
2022/10/29 09:38:00;;;;;;;20.73;5.03;;;32.10;1.00;;;;;;5070220;28;20664;-78
2022/10/29 09:40:32;;;;;;;47.40;6.55;;;33.20;1.00;;;;;;5061246;28;20183;-77
2022/10/29 09:43:11;;;;;;;15.60;5.60;;;33.70;1.00;;;;;;5061979;28;20340;-78
2022/10/29 09:45:59;;;;;;;14.55;5.50;;;33.80;1.00;;;;;;5060047;28;20180;-78
2022/10/29 09:48:37;;;;;;;15.00;5.70;;;33.80;1.00;;;;;;5067869;28;20180;-78
2022/10/29 09:51:35;;;;;;;15.45;5.18;;;33.70;1.00;;;;;;5060879;28;20187;-78
2022/10/29 09:54:01;;;;;;;15.73;5.50;;;33.80;1.00;;;;;;5060646;28;20199;-77
2022/10/29 09:56:27;;;;;;;17.98;5.10;;;34.50;1.00;;;;;;5068822;28;20160;-78
2022/10/29 09:59:02;;;;;;;20.95;5.50;;;35.20;1.00;;;;;;5060622;28;20172;-79
2022/10/29 10:01:28;;;;;;;12.50;5.07;;;35.70;1.00;;;;;;5069964;28;20233;-78
2022/10/29 10:03:58;;;;;;;13.48;4.70;;;35.70;1.00;;;;;;5065058;28;20176;-78
2022/10/29 10:06:23;;;;;;;11.98;4.93;;;35.40;1.00;;;;;;5071060;28;20601;-79
2022/10/29 10:08:58;;;;;;;16.00;4.45;;;34.90;1.00;;;;;;5070153;28;20209;-78
2022/10/29 10:11:29;;;;;;;12.90;5.68;;;35.10;1.00;;;;;;5076774;28;20194;-79
2022/10/29 10:13:59;;;;;;;15.40;4.85;;;34.80;1.00;;;;;;5069329;28;20249;-78
2022/10/29 10:16:31;;;;;;;8.85;4.80;;;34.70;1.00;;;;;;5073741;28;20168;-78
2022/10/29 10:18:57;;;;;;;14.77;5.30;;;34.90;1.00;;;;;;5065816;28;20543;-79
2022/10/29 10:21:31;;;;;;;13.68;5.45;;;35.10;1.00;;;;;;5064846;28;20183;-78
2022/10/29 10:23:58;;;;;;;26.88;5.60;;;34.30;1.00;;;;;;5070121;28;20742;-78
2022/10/29 10:26:42;;;;;;;14.35;5.32;;;34.00;1.00;;;;;;5076965;28;20172;-82
2022/10/29 10:29:14;;;;;;;13.68;4.68;;;34.40;1.00;;;;;;5079259;28;20176;-82
2022/10/29 10:31:48;;;;;;;16.65;4.93;;;35.00;1.00;;;;;;5083919;28;20200;-82
2022/10/29 10:34:19;;;;;;;11.38;4.55;;;35.00;1.00;;;;;;5085936;28;20230;-81
2022/10/29 10:36:49;;;;;;;10.27;4.80;;;34.90;1.00;;;;;;5073090;28;20639;-81
2022/10/29 10:39:33;;;;;;;11.60;5.07;;;35.30;1.00;;;;;;5085176;28;20693;-79
2022/10/29 10:42:05;;;;;;;16.15;5.93;;;34.90;1.00;;;;;;5072505;28;20270;-80
2022/10/29 10:44:32;;;;;;;13.93;5.20;;;34.50;1.00;;;;;;5068311;28;20172;-79
2022/10/29 10:47:04;;;;;;;10.52;4.80;;;34.30;1.00;;;;;;5067967;28;20194;-78
2022/10/29 10:49:35;;;;;;;17.88;5.50;;;34.10;1.00;;;;;;5071672;28;20179;-78
2022/10/29 10:52:14;;;;;;;20.55;5.78;;;34.40;1.00;;;;;;5070102;28;20792;-78
2022/10/29 10:54:55;;;;;;;15.45;5.03;;;34.20;1.00;;;;;;5061658;28;20183;-77
2022/10/29 10:57:24;;;;;;;14.70;5.47;;;34.20;1.00;;;;;;5052062;28;20580;-79
2022/10/29 11:00:08;;;;;;;14.07;5.90;;;33.60;1.00;;;;;;5059530;28;20175;-79
2022/10/29 11:02:49;;;;;;;12.60;5.88;;;33.90;1.00;;;;;;5072304;28;20217;-78
2022/10/29 11:05:30;;;;;;;10.70;5.20;;;33.80;1.00;;;;;;5072792;28;20546;-78
2022/10/29 11:08:03;;;;;;;13.88;6.03;;;33.50;1.00;;;;;;5071250;28;20184;-78
2022/10/29 11:11:00;;;;;;;15.30;5.25;;;33.80;1.00;;;;;;5072900;28;20662;-79
2022/10/29 11:13:28;;;;;;;12.00;5.65;;;34.20;1.00;;;;;;5083701;28;20565;-78
2022/10/29 11:16:01;;;;;;;16.33;5.90;;;34.10;1.00;;;;;;5072469;28;20186;-78
2022/10/29 11:18:35;;;;;;;17.95;5.40;;;34.20;1.00;;;;;;5071171;28;20173;-77
2022/10/29 11:21:04;;;;;;;13.88;5.38;;;33.60;1.00;;;;;;5056737;28;20297;-78
2022/10/29 11:24:07;;;;;;;13.93;5.57;;;31.90;1.00;;;;;;5061512;28;20188;-77
2022/10/29 11:26:43;;;;;;;13.15;5.00;;;31.30;1.00;;;;;;5043460;28;20184;-77
2022/10/29 11:29:34;;;;;;;15.32;5.43;;;31.90;1.00;;;;;;5063907;28;20178;-77
2022/10/29 11:32:21;;;;;;;16.88;6.05;;;33.20;1.00;;;;;;5070604;28;20590;-78
2022/10/29 11:35:04;;;;;;;11.40;5.03;;;33.70;1.00;;;;;;5065864;28;20271;-77
2022/10/29 11:37:56;;;;;;;14.25;5.47;;;33.80;1.00;;;;;;5067709;28;20168;-77
2022/10/29 11:40:42;;;;;;;14.25;5.63;;;35.00;1.00;;;;;;5065755;28;20309;-77
2022/10/29 11:43:12;;;;;;;15.13;5.45;;;34.70;1.00;;;;;;5068286;28;20695;-79
2022/10/29 11:45:37;;;;;;;11.15;4.72;;;33.50;1.00;;;;;;5073362;28;20673;-78
2022/10/29 11:48:21;;;;;;;11.13;4.85;;;32.40;1.00;;;;;;5069499;28;20168;-78
2022/10/29 11:51:01;;;;;;;14.02;5.07;;;31.30;1.00;;;;;;5058911;28;20188;-78
2022/10/29 11:53:46;;;;;;;12.73;5.65;;;30.30;1.00;;;;;;5066595;28;20203;-78
2022/10/29 11:56:51;;;;;;;12.87;5.20;;;28.60;1.00;;;;;;5065274;28;20297;-79
2022/10/29 11:59:20;;;;;;;12.40;5.07;;;27.50;1.00;;;;;;5060522;28;20213;-78
2022/10/29 12:01:53;;;;;;;17.33;6.07;;;27.30;1.00;;;;;;5063605;28;20196;-79
2022/10/29 12:04:46;;;;;;;13.93;5.90;;;26.80;1.00;;;;;;5058397;28;20169;-77
2022/10/29 12:07:30;;;;;;;12.67;5.37;;;26.50;1.00;;;;;;5055615;28;20681;-78
2022/10/29 12:10:40;;;;;;;15.83;5.70;;;26.20;1.00;;;;;;5085068;28;20465;-80
2022/10/29 12:13:20;;;;;;;13.47;5.50;;;25.90;1.00;;;;;;5048054;28;20454;-79
2022/10/29 12:16:12;;;;;;;14.37;5.20;;;25.70;1.00;;;;;;5057458;28;20449;-79
2022/10/29 12:18:54;;;;;;;11.53;5.50;;;25.50;1.00;;;;;;5054090;28;20430;-78
2022/10/29 12:21:29;;;;;;;14.13;5.77;;;25.40;1.00;;;;;;5063291;28;20468;-78
2022/10/29 12:24:16;;;;;;;16.93;5.73;;;25.40;1.00;;;;;;5068430;28;20830;-78
2022/10/29 12:26:48;;;;;;;19.00;5.63;;;25.50;1.00;;;;;;5067497;28;20801;-78
2022/10/29 12:29:25;;;;;;;13.30;5.30;;;25.60;1.00;;;;;;5068919;28;20410;-79
2022/10/29 12:32:24;;;;;;;14.00;6.10;;;25.50;1.00;;;;;;5050158;28;20458;-78
2022/10/29 12:35:11;;;;;;;19.03;6.33;;;25.80;1.00;;;;;;5050190;28;20419;-78
2022/10/29 12:38:08;;;;;;;21.50;5.30;;;25.80;1.00;;;;;;5070949;28;20404;-78
2022/10/29 12:40:43;;;;;;;11.97;5.33;;;26.10;1.00;;;;;;5088181;28;20401;-78
2022/10/29 12:43:37;;;;;;;19.07;5.93;;;26.60;1.00;;;;;;5072020;28;20429;-76
2022/10/29 12:46:27;;;;;;;17.83;6.00;;;27.20;1.00;;;;;;5089745;28;20487;-77
2022/10/29 12:49:05;;;;;;;15.37;5.67;;;27.50;1.00;;;;;;5089285;28;20433;-78
2022/10/29 12:52:01;;;;;;;18.70;5.30;;;27.10;1.00;;;;;;5089820;28;20790;-79
2022/10/29 12:54:38;;;;;;;14.60;5.40;;;27.00;1.00;;;;;;5057399;28;20466;-78
2022/10/29 12:57:16;;;;;;;16.77;6.27;;;26.60;1.00;;;;;;5049259;28;20519;-77
2022/10/29 12:59:43;;;;;;;15.20;5.27;;;26.20;1.00;;;;;;5049373;28;20960;-77
2022/10/29 13:02:30;;;;;;;22.53;5.80;;;25.90;1.00;;;;;;5062176;28;20450;-77
2022/10/29 13:05:05;;;;;;;14.90;5.47;;;25.90;1.00;;;;;;5069830;28;20417;-76
2022/10/29 13:07:31;;;;;;;21.80;6.37;;;25.90;1.00;;;;;;5063040;28;20418;-77
2022/10/29 13:10:22;;;;;;;11.67;5.43;;;25.90;1.00;;;;;;5068341;28;20406;-79